Time;durP1;ratioP1;P1;durP2;ratioP2;P2;SDS_P1;SDS_P2;PMS_P1;PMS_P2;Temp;Humidity;BMP_temperature;BMP_pressure;BME280_temperature;BME280_humidity;BME280_pressure;Samples;Min_cycle;Max_cycle;Signal;HPM_P1;HPM_P2
2021/09/03 00:01:51;;;;;;;;;;;26.40;99.90;;;;;;1813491;77;20146;-93
2021/09/03 00:04:24;;;;;;;;;;;26.30;99.90;;;;;;1805062;78;20192;-92
2021/09/03 00:06:55;;;;;;;;;;;26.30;99.90;;;;;;1818377;78;20158;-94
2021/09/03 00:09:46;;;;;;;;;;;26.40;99.90;;;;;;1801245;77;20239;-93
2021/09/03 00:12:20;;;;;;;;;;;26.40;99.90;;;;;;1809104;77;20188;-91
2021/09/03 00:14:53;;;;;;;;;;;26.40;99.90;;;;;;1826389;77;20229;-93
2021/09/03 00:17:43;;;;;;;;;;;26.30;99.90;;;;;;1802771;78;20234;-95
2021/09/03 00:20:31;;;;;;;;;;;26.30;99.90;;;;;;1798546;78;20185;-92
2021/09/03 00:23:03;;;;;;;;;;;26.40;99.90;;;;;;1810887;77;20161;-94
2021/09/03 00:25:36;;;;;;;;;;;26.30;99.90;;;;;;1813651;77;20176;-91
2021/09/03 00:28:10;;;;;;;;;;;26.40;99.90;;;;;;1812850;78;20260;-94
2021/09/03 00:31:12;;;;;;;;;;;;;;;;;;;;;
2021/09/03 00:33:29;;;;;;;;;;;26.50;99.90;;;;;;1805442;77;20263;-93
2021/09/03 00:36:00;;;;;;;;;;;26.50;99.90;;;;;;1813163;78;20129;-94
2021/09/03 00:38:29;;;;;;;;;;;26.50;99.90;;;;;;1808097;79;20233;-93
2021/09/03 00:40:59;;;;;;;;;;;26.60;99.90;;;;;;1798830;77;20190;-94
2021/09/03 00:43:30;;;;;;;;;;;26.60;99.90;;;;;;1807106;78;20851;-93
2021/09/03 00:46:02;;;;;;;;;;;26.60;99.90;;;;;;1809182;78;20254;-94
2021/09/03 00:48:42;;;;;;;;;;;26.70;99.90;;;;;;1801297;78;20200;-92
2021/09/03 00:51:38;;;;;;;;;;;;;;;;;;;;;
2021/09/03 00:54:08;;;;;;;;;;;26.70;99.90;;;;;;1756282;80;20239;-94
2021/09/03 00:57:10;;;;;;;;;;;26.80;99.90;;;;;;1775128;79;20229;-95
2021/09/03 00:59:56;;;;;;;;;;;26.80;99.90;;;;;;1743304;82;20261;-94
2021/09/03 01:02:49;;;;;;;;;;;26.80;99.90;;;;;;1744534;80;20170;-93
2021/09/03 01:05:39;;;;;;;;;;;26.90;99.90;;;;;;1741496;81;20261;-92
2021/09/03 01:08:12;;;;;;;;;;;27.00;99.90;;;;;;1781903;79;20205;-93
2021/09/03 01:11:00;;;;;;;;;;;27.00;99.90;;;;;;1749867;80;20242;-91
2021/09/03 01:13:32;;;;;;;;;;;27.10;99.90;;;;;;1772815;79;20214;-94
2021/09/03 01:16:12;;;;;;;;;;;27.10;99.90;;;;;;1753736;80;20217;-92
2021/09/03 01:18:47;;;;;;;;;;;27.20;99.90;;;;;;1760075;80;20302;-94
2021/09/03 01:21:34;;;;;;;;;;;27.20;99.90;;;;;;1758665;80;20220;-93
2021/09/03 01:24:08;;;;;;;;;;;27.20;99.90;;;;;;1805132;77;20415;-92
2021/09/03 01:26:38;;;;;;;;;;;27.20;99.90;;;;;;1828722;77;20212;-92
2021/09/03 01:29:20;;;;;;;;;;;27.30;99.90;;;;;;1806149;75;20126;-94
2021/09/03 01:31:50;;;;;;;;;;;27.30;99.90;;;;;;1806783;77;20183;-92
2021/09/03 01:34:21;;;;;;;;;;;27.40;99.90;;;;;;1776142;78;20504;-93
2021/09/03 01:37:00;;;;;;;;;;;27.40;99.90;;;;;;1783727;78;20194;-93
2021/09/03 01:39:30;;;;;;;;;;;27.40;99.90;;;;;;1769366;80;20270;-92
2021/09/03 01:42:09;;;;;;;;;;;27.40;99.90;;;;;;1747098;80;20201;-95
2021/09/03 01:44:55;;;;;;;;;;;27.40;99.90;;;;;;1739145;81;20224;-94
2021/09/03 01:47:25;;;;;;;;;;;27.40;99.90;;;;;;1752265;80;20137;-94
2021/09/03 01:49:55;;;;;;;;;;;27.50;99.90;;;;;;1761733;80;20187;-91
2021/09/03 01:52:27;;;;;;;;;;;27.50;99.90;;;;;;1729852;80;20181;-90
2021/09/03 01:55:17;;;;;;;;;;;27.50;99.90;;;;;;1801354;77;20190;-93
2021/09/03 01:57:42;;;;;;;;;;;27.50;99.90;;;;;;1815993;77;20233;-93
2021/09/03 02:00:21;;;;;;;;;;;27.50;99.90;;;;;;1825707;77;20123;-92
2021/09/03 02:02:56;;;;;;;;;;;27.50;99.90;;;;;;1794541;78;20184;-77
2021/09/03 02:05:26;;;;;;;;;;;27.50;99.90;;;;;;1791452;78;20886;-77
2021/09/03 02:07:56;;;;;;;;;;;27.50;99.90;;;;;;1807852;77;20226;-77
2021/09/03 02:10:28;;;;;;;;;;;27.50;99.90;;;;;;1797441;78;20243;-77
2021/09/03 02:12:57;;;;;;;;;;;27.50;99.90;;;;;;1811147;77;20216;-76
2021/09/03 02:15:27;;;;;;;;;;;27.50;99.90;;;;;;1798592;79;20173;-79
2021/09/03 02:17:57;;;;;;;;;;;27.60;99.90;;;;;;1782252;80;20505;-76
2021/09/03 02:20:27;;;;;;;;;;;27.60;99.90;;;;;;1792692;79;20275;-78
2021/09/03 02:22:57;;;;;;;;;;;27.70;99.90;;;;;;1794809;77;20190;-76
2021/09/03 02:25:27;;;;;;;;;;;27.70;99.90;;;;;;1780286;77;20217;-76
2021/09/03 02:27:57;;;;;;;;;;;27.90;99.90;;;;;;1793770;79;20133;-75
2021/09/03 02:30:26;;;;;;;;;;;28.00;99.90;;;;;;1801753;78;20135;-75
2021/09/03 02:32:56;;;;;;;;;;;28.10;99.90;;;;;;1797747;78;20212;-75
2021/09/03 02:35:26;;;;;;;;;;;28.10;99.90;;;;;;1780306;78;20208;-76
2021/09/03 02:37:57;;;;;;;;;;;28.10;99.90;;;;;;1795291;78;20121;-77
2021/09/03 02:40:27;;;;;;;;;;;28.10;99.90;;;;;;1746472;80;20231;-77
2021/09/03 02:42:57;;;;;;;;;;;28.10;99.90;;;;;;1795480;78;20191;-77
2021/09/03 02:45:26;;;;;;;;;;;28.20;99.90;;;;;;1785114;79;20255;-77
2021/09/03 02:47:56;;;;;;;;;;;28.30;99.90;;;;;;1788673;78;20259;-76
2021/09/03 02:50:26;;;;;;;;;;;28.50;99.90;;;;;;1800758;78;20138;-77
2021/09/03 02:52:56;;;;;;;;;;;28.60;99.90;;;;;;1797994;78;20153;-76
2021/09/03 02:55:26;;;;;;;;;;;28.80;99.90;;;;;;1796729;77;20502;-75
2021/09/03 02:57:56;;;;;;;;;;;29.00;99.90;;;;;;1792816;78;20214;-77
2021/09/03 03:00:27;;;;;;;;;;;29.00;99.90;;;;;;1806444;79;20200;-77
2021/09/03 03:02:58;;;;;;;;;;;29.10;99.90;;;;;;1782555;79;20220;-75
2021/09/03 03:05:27;;;;;;;;;;;29.10;99.90;;;;;;1805872;77;20281;-76
2021/09/03 03:07:57;;;;;;;;;;;29.10;99.90;;;;;;1791653;76;20203;-75
2021/09/03 03:10:27;;;;;;;;;;;29.20;99.90;;;;;;1711707;81;20197;-75
2021/09/03 03:12:58;;;;;;;;;;;29.30;99.90;;;;;;1738607;81;20345;-75
2021/09/03 03:15:28;;;;;;;;;;;29.30;99.90;;;;;;1767049;81;20191;-75
2021/09/03 03:17:58;;;;;;;;;;;29.50;99.90;;;;;;1791668;79;20197;-76
2021/09/03 03:20:27;;;;;;;;;;;29.70;99.90;;;;;;1771133;80;20221;-76
2021/09/03 03:22:57;;;;;;;;;;;29.80;99.90;;;;;;1799749;76;20400;-76
2021/09/03 03:25:27;;;;;;;;;;;29.90;99.90;;;;;;1791656;78;20198;-77
2021/09/03 03:27:57;;;;;;;;;;;30.00;99.90;;;;;;1743470;80;20253;-76
2021/09/03 03:30:26;;;;;;;;;;;30.10;98.90;;;;;;1737952;81;20436;-76
2021/09/03 03:32:56;;;;;;;;;;;30.30;99.90;;;;;;1814006;77;20212;-76
2021/09/03 03:35:27;;;;;;;;;;;30.40;99.70;;;;;;1789939;79;20244;-76
2021/09/03 03:37:57;;;;;;;;;;;30.50;99.00;;;;;;1801495;78;20196;-76
2021/09/03 03:40:27;;;;;;;;;;;30.60;97.90;;;;;;1796732;77;20217;-77
2021/09/03 03:42:56;;;;;;;;;;;30.60;98.60;;;;;;1778532;78;20136;-76
2021/09/03 03:45:26;;;;;;;;;;;30.70;98.20;;;;;;1809462;77;20201;-75
2021/09/03 03:47:56;;;;;;;;;;;30.70;97.80;;;;;;1789527;78;20252;-76
2021/09/03 03:50:25;;;;;;;;;;;30.70;97.50;;;;;;1802584;78;20206;-76
2021/09/03 03:52:55;;;;;;;;;;;30.60;97.80;;;;;;1787340;79;20218;-75
2021/09/03 03:55:25;;;;;;;;;;;30.60;97.60;;;;;;1808714;78;20182;-76
2021/09/03 03:57:55;;;;;;;;;;;30.50;97.90;;;;;;1805361;78;20261;-75
2021/09/03 04:00:25;;;;;;;;;;;30.40;98.70;;;;;;1802236;78;20221;-76
2021/09/03 04:02:54;;;;;;;;;;;30.50;99.00;;;;;;1793955;77;20181;-75
2021/09/03 04:05:24;;;;;;;;;;;30.50;97.80;;;;;;1800117;78;20396;-76
2021/09/03 04:07:53;;;;;;;;;;;30.60;98.30;;;;;;1795765;78;20177;-76
2021/09/03 04:10:27;;;;;;;;;;;30.60;98.70;;;;;;1806318;77;20562;-77
2021/09/03 04:12:56;;;;;;;;;;;30.70;97.30;;;;;;1804207;78;20446;-76
2021/09/03 04:15:26;;;;;;;;;;;30.60;97.20;;;;;;1799236;77;20859;-77
2021/09/03 04:17:56;;;;;;;;;;;30.40;97.90;;;;;;1808984;77;20184;-77
2021/09/03 04:20:25;;;;;;;;;;;30.30;98.10;;;;;;1801389;77;20165;-78
2021/09/03 04:22:55;;;;;;;;;;;30.10;98.30;;;;;;1797390;78;20232;-76
2021/09/03 04:25:24;;;;;;;;;;;30.00;98.70;;;;;;1804670;77;20626;-75
2021/09/03 04:27:54;;;;;;;;;;;30.00;98.70;;;;;;1798184;77;20600;-75
2021/09/03 04:30:25;;;;;;;;;;;29.90;99.30;;;;;;1803458;77;20263;-76
2021/09/03 04:32:56;;;;;;;;;;;29.90;98.30;;;;;;1816645;77;20178;-77
2021/09/03 04:35:26;;;;;;;;;;;30.00;97.50;;;;;;1729915;81;20261;-75
2021/09/03 04:37:56;;;;;;;;;;;30.00;96.50;;;;;;1756407;79;20176;-76
2021/09/03 04:40:25;;;;;;;;;;;30.00;97.00;;;;;;1821992;77;20883;-76
2021/09/03 04:42:55;;;;;;;;;;;30.10;96.60;;;;;;1813822;77;20452;-75
2021/09/03 04:45:25;;;;;;;;;;;30.10;96.20;;;;;;1805119;78;20760;-76
2021/09/03 04:47:54;;;;;;;;;;;30.00;96.10;;;;;;1802549;78;20847;-75
2021/09/03 04:50:24;;;;;;;;;;;30.00;96.20;;;;;;1797032;77;20240;-75
2021/09/03 04:52:53;;;;;;;;;;;29.90;96.10;;;;;;1800561;77;20643;-75
2021/09/03 04:55:23;;;;;;;;;;;29.70;95.80;;;;;;1803301;77;20252;-76
2021/09/03 04:57:53;;;;;;;;;;;29.70;95.90;;;;;;1799227;77;20315;-76
2021/09/03 05:00:23;;;;;;;;;;;29.60;96.10;;;;;;1799823;77;20172;-76
2021/09/03 05:02:53;;;;;;;;;;;29.70;96.50;;;;;;1810576;77;20609;-76
2021/09/03 05:05:25;;;;;;;;;;;29.80;97.30;;;;;;1800834;77;20185;-77
2021/09/03 05:07:56;;;;;;;;;;;29.90;96.80;;;;;;1805645;77;20605;-75
2021/09/03 05:10:28;;;;;;;;;;;30.00;96.50;;;;;;1807357;77;20233;-76
2021/09/03 05:13:01;;;;;;;;;;;30.10;96.10;;;;;;1813745;77;20181;-78
2021/09/03 05:15:32;;;;;;;;;;;30.30;95.80;;;;;;1820005;77;20566;-76
2021/09/03 05:18:02;;;;;;;;;;;30.40;95.90;;;;;;1813291;77;20305;-76
2021/09/03 05:20:31;;;;;;;;;;;30.60;95.40;;;;;;1804903;77;20224;-77
2021/09/03 05:23:01;;;;;;;;;;;30.70;95.00;;;;;;1815918;77;20279;-76
2021/09/03 05:25:30;;;;;;;;;;;30.80;95.10;;;;;;1804511;77;20245;-78
2021/09/03 05:28:00;;;;;;;;;;;30.90;93.40;;;;;;1802211;78;20287;-75
2021/09/03 05:30:30;;;;;;;;;;;30.90;93.60;;;;;;1790339;78;20285;-76
2021/09/03 05:32:59;;;;;;;;;;;31.10;94.30;;;;;;1792861;78;20502;-77
2021/09/03 05:35:29;;;;;;;;;;;31.20;95.10;;;;;;1810876;77;20227;-75
2021/09/03 05:38:04;;;;;;;;;;;31.30;93.70;;;;;;1814453;77;20232;-75
2021/09/03 05:40:30;;;;;;;;;;;31.50;93.60;;;;;;1802243;78;20194;-75
2021/09/03 05:43:00;;;;;;;;;;;31.60;93.30;;;;;;1725531;82;20232;-75
2021/09/03 05:45:30;;;;;;;;;;;31.60;92.60;;;;;;1765570;79;20174;-75
2021/09/03 05:48:02;;;;;;;;;;;31.70;91.70;;;;;;1773807;79;20185;-75
2021/09/03 05:50:31;;;;;;;;;;;31.70;92.00;;;;;;1734887;81;20165;-75
2021/09/03 05:53:01;;;;;;;;;;;31.70;92.10;;;;;;1756356;79;20445;-75
2021/09/03 05:55:30;;;;;;;;;;;31.50;92.30;;;;;;1747925;80;20164;-76
2021/09/03 05:58:03;;;;;;;;;;;31.50;92.20;;;;;;1805965;77;20181;-77
2021/09/03 06:00:33;;;;;;;;;;;31.40;93.00;;;;;;1808045;77;20228;-75
2021/09/03 06:03:03;;;;;;;;;;;31.30;92.30;;;;;;1810148;77;20208;-75
2021/09/03 06:05:33;;;;;;;;;;;31.30;92.80;;;;;;1817428;77;20486;-76
2021/09/03 06:08:02;;;;;;;;;;;31.20;93.00;;;;;;1800770;78;20193;-76
2021/09/03 06:10:32;;;;;;;;;;;31.10;93.30;;;;;;1803244;78;20200;-76
2021/09/03 06:13:02;;;;;;;;;;;31.00;95.50;;;;;;1792954;77;20538;-76
2021/09/03 06:15:32;;;;;;;;;;;31.00;93.80;;;;;;1774362;79;20194;-78
2021/09/03 06:18:07;;;;;;;;;;;31.10;93.80;;;;;;1791120;77;20223;-76
2021/09/03 06:20:37;;;;;;;;;;;31.20;94.00;;;;;;1791438;79;20133;-77
2021/09/03 06:26:11;;;;;;;;;;;31.40;93.90;;;;;;1809442;77;20185;-76
2021/09/03 06:28:41;;;;;;;;;;;31.40;93.60;;;;;;1834450;77;20242;-75
2021/09/03 06:31:11;;;;;;;;;;;31.40;93.70;;;;;;1799229;78;20219;-76
2021/09/03 06:33:41;;;;;;;;;;;31.30;93.50;;;;;;1809070;77;20203;-76
2021/09/03 06:36:10;;;;;;;;;;;31.20;93.70;;;;;;1802888;78;20538;-76
2021/09/03 06:38:40;;;;;;;;;;;31.10;94.00;;;;;;1791087;78;20221;-76
2021/09/03 06:41:09;;;;;;;;;;;31.10;94.00;;;;;;1810484;79;20247;-76
2021/09/03 06:43:39;;;;;;;;;;;31.00;93.90;;;;;;1804182;78;20477;-76
2021/09/03 06:46:09;;;;;;;;;;;31.00;93.80;;;;;;1804056;78;20248;-78
2021/09/03 06:48:39;;;;;;;;;;;31.00;94.00;;;;;;1792763;78;20155;-76
2021/09/03 06:51:09;;;;;;;;;;;30.90;94.40;;;;;;1795067;79;20219;-76
2021/09/03 06:53:39;;;;;;;;;;;30.90;94.10;;;;;;1799497;79;20197;-76
2021/09/03 06:56:08;;;;;;;;;;;30.90;95.20;;;;;;1801160;77;20173;-76
2021/09/03 06:58:38;;;;;;;;;;;30.80;94.40;;;;;;1799636;77;20224;-76
2021/09/03 07:01:08;;;;;;;;;;;30.80;94.50;;;;;;1785349;77;20228;-76
2021/09/03 07:03:38;;;;;;;;;;;30.80;94.60;;;;;;1793442;77;20161;-76
2021/09/03 07:06:07;;;;;;;;;;;30.80;94.60;;;;;;1785185;79;20461;-76
2021/09/03 07:08:37;;;;;;;;;;;30.80;95.00;;;;;;1786381;78;20179;-77
2021/09/03 07:11:07;;;;;;;;;;;30.80;94.10;;;;;;1775980;79;20399;-75
2021/09/03 07:13:37;;;;;;;;;;;30.70;94.50;;;;;;1773548;78;20597;-76
2021/09/03 07:16:06;;;;;;;;;;;30.70;94.60;;;;;;1761996;80;20741;-76
2021/09/03 07:18:37;;;;;;;;;;;30.70;94.90;;;;;;1767068;78;20224;-76
2021/09/03 07:21:07;;;;;;;;;;;30.70;94.60;;;;;;1804782;77;20228;-76
2021/09/03 07:23:44;;;;;;;;;;;30.60;94.60;;;;;;1797839;78;20400;-76
2021/09/03 07:26:15;;;;;;;;;;;30.60;94.90;;;;;;1801670;78;20196;-77
2021/09/03 07:29:00;;;;;;;;;;;30.60;95.20;;;;;;1796149;78;20188;-75
2021/09/03 07:31:29;;;;;;;;;;;30.50;95.70;;;;;;1778543;78;20185;-77
2021/09/03 07:33:59;;;;;;;;;;;30.40;95.90;;;;;;1809231;78;20126;-76
2021/09/03 07:36:36;;;;;;;;;;;30.30;95.90;;;;;;1773589;78;20235;-77
2021/09/03 07:39:32;;;;;;;;;;;30.20;96.20;;;;;;1614607;86;20206;-77
2021/09/03 07:44:43;;;;;;;;;;;30.00;97.30;;;;;;1766618;79;20738;-76
2021/09/03 07:47:13;;;;;;;;;;;29.80;98.30;;;;;;1757774;79;20870;-75
2021/09/03 07:49:43;;;;;;;;;;;29.60;98.80;;;;;;1777941;79;20229;-76
2021/09/03 07:52:12;;;;;;;;;;;29.40;99.30;;;;;;1744615;80;20164;-76
2021/09/03 07:54:44;;;;;;;;;;;29.20;99.10;;;;;;1782043;78;20214;-75
2021/09/03 07:57:13;;;;;;;;;;;29.00;99.90;;;;;;1797831;78;20513;-76
2021/09/03 07:59:42;;;;;;;;;;;28.80;99.90;;;;;;1805764;78;20270;-75
2021/09/03 08:02:12;;;;;;;;;;;28.50;99.90;;;;;;1798827;77;20161;-75
2021/09/03 08:04:43;;;;;;;;;;;28.30;99.90;;;;;;1792769;78;20549;-75
2021/09/03 08:07:13;;;;;;;;;;;28.10;99.90;;;;;;1773767;80;20261;-74
2021/09/03 08:09:43;;;;;;;;;;;27.80;99.90;;;;;;1791100;78;20180;-74
2021/09/03 08:12:13;;;;;;;;;;;27.60;99.90;;;;;;1808290;78;20208;-76
2021/09/03 08:14:43;;;;;;;;;;;27.30;99.90;;;;;;1805066;78;20241;-74
2021/09/03 08:17:12;;;;;;;;;;;27.10;99.90;;;;;;1794066;79;20223;-74
2021/09/03 08:19:43;;;;;;;;;;;26.90;99.90;;;;;;1803400;78;20190;-76
2021/09/03 08:22:14;;;;;;;;;;;26.50;99.90;;;;;;1814436;77;20200;-76
2021/09/03 08:24:43;;;;;;;;;;;26.50;99.90;;;;;;1798032;78;20486;-76
2021/09/03 08:27:13;;;;;;;;;;;26.30;99.90;;;;;;1799420;77;20251;-77
2021/09/03 08:29:47;;;;;;;;;;;26.00;99.90;;;;;;1795022;78;20169;-77
2021/09/03 08:32:34;;;;;;;;;;;25.80;99.90;;;;;;1817231;77;20436;-77
2021/09/03 08:35:04;;;;;;;;;;;25.60;99.90;;;;;;1794953;78;20259;-76
2021/09/03 08:37:35;;;;;;;;;;;25.50;99.90;;;;;;1811910;78;20251;-77
2021/09/03 08:40:05;;;;;;;;;;;25.50;99.90;;;;;;1804967;78;20418;-76
2021/09/03 08:42:36;;;;;;;;;;;25.40;99.90;;;;;;1795814;78;20164;-76
2021/09/03 08:45:07;;;;;;;;;;;25.30;99.90;;;;;;1742619;80;20232;-76
2021/09/03 08:47:37;;;;;;;;;;;25.30;99.90;;;;;;1781594;79;20222;-76
2021/09/03 08:50:08;;;;;;;;;;;25.20;99.90;;;;;;1802370;78;20282;-77
2021/09/03 08:52:42;;;;;;;;;;;25.20;99.90;;;;;;1790138;79;20500;-79
2021/09/03 08:55:14;;;;;;;;;;;25.20;99.90;;;;;;1783139;79;20191;-78
2021/09/03 08:57:44;;;;;;;;;;;25.10;99.90;;;;;;1805397;77;20217;-78
2021/09/03 09:00:20;;;;;;;;;;;25.00;99.90;;;;;;1785646;79;20224;-78
2021/09/03 09:02:51;;;;;;;;;;;24.80;99.90;;;;;;1794380;79;20193;-77
2021/09/03 09:05:21;;;;;;;;;;;24.70;99.90;;;;;;1793881;78;20198;-79
2021/09/03 09:07:52;;;;;;;;;;;24.60;99.90;;;;;;1807279;78;20222;-78
2021/09/03 09:10:23;;;;;;;;;;;24.60;99.90;;;;;;1797240;78;20165;-80
2021/09/03 09:12:53;;;;;;;;;;;24.50;99.90;;;;;;1798054;78;20229;-79
2021/09/03 09:15:22;;;;;;;;;;;24.50;99.90;;;;;;1800703;78;20169;-80
2021/09/03 09:17:52;;;;;;;;;;;24.50;99.90;;;;;;1794775;79;20136;-81
2021/09/03 09:20:23;;;;;;;;;;;24.50;99.90;;;;;;1801981;78;20503;-80
2021/09/03 09:22:59;;;;;;;;;;;24.50;99.90;;;;;;1801510;78;20133;-79
2021/09/03 09:25:30;;;;;;;;;;;24.50;99.90;;;;;;1789048;78;20408;-81
2021/09/03 09:28:02;;;;;;;;;;;24.50;99.90;;;;;;1802408;78;20212;-79
2021/09/03 09:30:32;;;;;;;;;;;24.60;99.90;;;;;;1804801;77;20173;-79
2021/09/03 09:33:02;;;;;;;;;;;24.50;99.90;;;;;;1762691;79;20200;-81
2021/09/03 09:35:39;;;;;;;;;;;24.50;99.90;;;;;;1789435;78;20252;-80
2021/09/03 09:38:11;;;;;;;;;;;24.50;99.90;;;;;;1793127;79;20432;-81
2021/09/03 09:40:41;;;;;;;;;;;24.50;99.90;;;;;;1797800;78;20497;-77
2021/09/03 09:43:12;;;;;;;;;;;24.50;99.90;;;;;;1802944;78;20169;-78
2021/09/03 09:45:42;;;;;;;;;;;24.60;99.90;;;;;;1782754;78;20245;-78
2021/09/03 09:48:12;;;;;;;;;;;24.70;99.90;;;;;;1784616;79;20185;-79
2021/09/03 09:50:43;;;;;;;;;;;24.80;99.90;;;;;;1798351;78;20177;-78
2021/09/03 09:53:14;;;;;;;;;;;24.70;99.90;;;;;;1783559;77;20201;-78
2021/09/03 09:55:44;;;;;;;;;;;24.70;99.90;;;;;;1785236;79;20511;-77
2021/09/03 09:58:14;;;;;;;;;;;24.70;99.90;;;;;;1741746;81;20200;-79
2021/09/03 10:00:44;;;;;;;;;;;24.70;99.90;;;;;;1803646;78;20189;-80
2021/09/03 10:03:17;;;;;;;;;;;24.70;99.90;;;;;;1788886;78;20837;-80
2021/09/03 10:05:46;;;;;;;;;;;24.80;99.90;;;;;;1787365;79;20166;-80
2021/09/03 10:08:16;;;;;;;;;;;24.80;99.90;;;;;;1762616;79;20140;-78
2021/09/03 10:10:45;;;;;;;;;;;24.80;99.90;;;;;;1796949;78;20232;-79
2021/09/03 10:13:15;;;;;;;;;;;24.90;99.90;;;;;;1795546;78;20242;-79
2021/09/03 10:15:46;;;;;;;;;;;25.00;99.90;;;;;;1799368;78;20223;-81
2021/09/03 10:18:17;;;;;;;;;;;25.00;99.90;;;;;;1809993;78;20218;-80
2021/09/03 10:20:47;;;;;;;;;;;25.00;99.90;;;;;;1796342;77;20208;-84
2021/09/03 10:23:18;;;;;;;;;;;25.00;99.90;;;;;;1804935;78;20582;-78
2021/09/03 10:25:49;;;;;;;;;;;25.00;99.90;;;;;;1806149;78;20172;-78
2021/09/03 10:28:20;;;;;;;;;;;25.00;99.90;;;;;;1798795;78;20130;-79
2021/09/03 10:30:51;;;;;;;;;;;25.00;99.90;;;;;;1787883;79;20485;-79
2021/09/03 10:33:22;;;;;;;;;;;25.00;99.90;;;;;;1784884;78;20204;-80
2021/09/03 10:35:51;;;;;;;;;;;25.00;99.90;;;;;;1795782;78;20183;-80
2021/09/03 10:38:22;;;;;;;;;;;25.00;99.90;;;;;;1802807;78;20444;-80
2021/09/03 10:40:52;;;;;;;;;;;25.00;99.90;;;;;;1802832;77;20163;-79
2021/09/03 10:43:23;;;;;;;;;;;25.00;99.90;;;;;;1783993;79;20303;-78
2021/09/03 10:45:53;;;;;;;;;;;25.00;99.90;;;;;;1774068;79;20270;-78
2021/09/03 10:48:26;;;;;;;;;;;25.00;99.90;;;;;;1760575;79;20296;-79
2021/09/03 10:50:57;;;;;;;;;;;25.10;99.90;;;;;;1641902;85;20544;-80
2021/09/03 10:53:28;;;;;;;;;;;25.00;99.90;;;;;;1675888;83;20235;-78
2021/09/03 10:55:59;;;;;;;;;;;25.10;99.90;;;;;;1674158;84;20360;-79
2021/09/03 10:58:30;;;;;;;;;;;25.10;99.90;;;;;;1616175;86;20288;-80
2021/09/03 11:01:02;;;;;;;;;;;25.10;99.90;;;;;;1687765;83;20190;-79
2021/09/03 11:03:33;;;;;;;;;;;25.10;99.90;;;;;;1674007;84;20570;-79
2021/09/03 11:06:03;;;;;;;;;;;25.10;99.90;;;;;;1689780;83;20200;-79
2021/09/03 11:08:33;;;;;;;;;;;25.10;99.90;;;;;;1685023;84;20241;-79
2021/09/03 11:11:07;;;;;;;;;;;25.00;99.90;;;;;;1683423;83;20285;-78
2021/09/03 11:13:47;;;;;;;;;;;25.00;99.90;;;;;;1700739;84;21107;-78
2021/09/03 11:16:19;;;;;;;;;;;25.00;99.90;;;;;;1684304;83;20283;-78
2021/09/03 11:18:50;;;;;;;;;;;25.00;99.90;;;;;;1693085;83;20312;-80
2021/09/03 11:21:21;;;;;;;;;;;25.00;99.90;;;;;;1712801;78;20251;-79
2021/09/03 11:23:51;;;;;;;;;;;25.00;99.90;;;;;;1801022;78;20216;-78
2021/09/03 11:26:20;;;;;;;;;;;25.00;99.90;;;;;;1797782;78;20438;-78
2021/09/03 11:28:50;;;;;;;;;;;25.00;99.90;;;;;;1826039;78;20124;-79
2021/09/03 11:31:20;;;;;;;;;;;25.00;99.90;;;;;;1794475;78;20436;-78
2021/09/03 11:33:50;;;;;;;;;;;25.00;99.90;;;;;;1776458;80;20182;-78
2021/09/03 11:36:20;;;;;;;;;;;25.10;99.90;;;;;;1797201;78;20141;-79
2021/09/03 11:38:51;;;;;;;;;;;25.10;99.90;;;;;;1797000;78;20185;-79
2021/09/03 11:41:21;;;;;;;;;;;25.10;99.90;;;;;;1798411;78;20217;-79
2021/09/03 11:43:51;;;;;;;;;;;25.10;99.90;;;;;;1795160;77;20192;-78
2021/09/03 11:46:30;;;;;;;;;;;25.20;99.90;;;;;;1776001;79;20170;-78
2021/09/03 11:48:57;;;;;;;;;;;25.20;99.90;;;;;;1788112;78;20235;-78
2021/09/03 11:51:26;;;;;;;;;;;25.20;99.90;;;;;;1753440;78;20180;-79
2021/09/03 11:54:00;;;;;;;;;;;25.20;99.90;;;;;;1772197;79;20226;-77
2021/09/03 11:56:32;;;;;;;;;;;25.30;99.90;;;;;;1752261;80;20320;-78
2021/09/03 11:59:11;;;;;;;;;;;25.20;99.90;;;;;;1770436;79;20690;-80
2021/09/03 12:04:56;;;;;;;;;;;25.10;99.90;;;;;;1651153;85;20294;-78
2021/09/03 12:07:25;;;;;;;;;;;25.20;99.90;;;;;;1656643;85;20268;-80
2021/09/03 12:09:57;;;;;;;;;;;25.20;99.90;;;;;;1667151;86;20318;-81
2021/09/03 12:12:54;;;;;;;;;;;25.10;99.90;;;;;;1660856;84;20549;-81
2021/09/03 12:15:29;;;;;;;;;;;25.10;99.90;;;;;;1652377;85;20266;-79
2021/09/03 12:18:09;;;;;;;;;;;25.10;99.90;;;;;;1675763;83;20645;-79
2021/09/03 12:20:49;;;;;;;;;;;25.10;99.90;;;;;;1669990;83;20485;-81
2021/09/03 12:23:19;;;;;;;;;;;25.10;99.90;;;;;;1663915;84;20337;-80
2021/09/03 12:25:55;;;;;;;;;;;25.00;99.90;;;;;;1633825;85;20249;-79
2021/09/03 12:28:27;;;;;;;;;;;25.00;99.90;;;;;;1620526;87;20234;-79
2021/09/03 12:31:01;;;;;;;;;;;25.00;99.90;;;;;;1661334;83;20269;-80
2021/09/03 12:33:35;;;;;;;;;;;25.00;99.90;;;;;;1664049;83;20206;-79
2021/09/03 12:36:21;;;;;;;;;;;25.00;99.90;;;;;;1681772;83;20201;-79
2021/09/03 12:39:10;;;;;;;;;;;25.00;99.90;;;;;;1671059;83;20604;-79
2021/09/03 12:44:23;;;;;;;;;;;25.00;99.90;;;;;;1734149;80;20226;-80
2021/09/03 12:46:54;;;;;;;;;;;25.00;99.90;;;;;;1730771;81;20356;-80
2021/09/03 12:49:28;;;;;;;;;;;25.00;99.90;;;;;;1724616;81;20236;-80
2021/09/03 12:51:58;;;;;;;;;;;25.00;99.90;;;;;;1728129;82;20406;-78
2021/09/03 12:54:30;;;;;;;;;;;25.00;99.90;;;;;;1718727;82;20278;-79
2021/09/03 12:57:01;;;;;;;;;;;25.00;99.90;;;;;;1726343;81;20256;-80
2021/09/03 12:59:32;;;;;;;;;;;25.00;99.90;;;;;;1747143;81;20273;-79
2021/09/03 13:02:07;;;;;;;;;;;25.00;99.90;;;;;;1728649;82;20203;-79
2021/09/03 13:04:34;;;;;;;;;;;25.00;99.90;;;;;;1702871;82;20195;-80
2021/09/03 13:07:04;;;;;;;;;;;25.00;99.90;;;;;;1734007;81;20195;-80
2021/09/03 13:10:06;;;;;;;;;;;25.00;99.90;;;;;;1756466;80;20210;-80
2021/09/03 13:12:35;;;;;;;;;;;25.00;99.90;;;;;;1721788;83;20246;-83
2021/09/03 13:15:05;;;;;;;;;;;25.00;99.90;;;;;;1739757;79;20211;-81
2021/09/03 13:17:38;;;;;;;;;;;25.00;99.90;;;;;;1806016;79;20181;-79
2021/09/03 13:20:10;;;;;;;;;;;25.00;99.90;;;;;;1798328;79;20495;-79
2021/09/03 13:22:48;;;;;;;;;;;25.00;99.90;;;;;;1792639;78;20173;-81
2021/09/03 13:25:14;;;;;;;;;;;25.00;99.90;;;;;;1788726;78;20499;-81
2021/09/03 13:27:49;;;;;;;;;;;25.00;99.90;;;;;;1794168;78;20516;-80
2021/09/03 13:30:19;;;;;;;;;;;25.00;99.90;;;;;;1809780;77;20621;-81
2021/09/03 13:32:50;;;;;;;;;;;25.00;99.90;;;;;;1802790;77;20256;-78
2021/09/03 13:35:20;;;;;;;;;;;25.00;99.90;;;;;;1803701;77;20558;-81
2021/09/03 13:37:50;;;;;;;;;;;25.00;99.90;;;;;;1798015;78;20169;-83
2021/09/03 13:40:22;;;;;;;;;;;25.00;99.90;;;;;;1798634;78;20191;-81
2021/09/03 13:42:52;;;;;;;;;;;25.00;99.90;;;;;;1822168;79;20483;-78
2021/09/03 13:45:21;;;;;;;;;;;25.00;99.90;;;;;;1794172;79;20230;-79
2021/09/03 13:47:51;;;;;;;;;;;25.00;99.90;;;;;;1785101;80;20206;-80
2021/09/03 13:50:21;;;;;;;;;;;25.00;99.90;;;;;;1773719;80;20220;-80
2021/09/03 13:52:53;;;;;;;;;;;25.00;99.90;;;;;;1789988;80;20158;-92
2021/09/03 13:55:46;;;;;;;;;;;25.00;99.90;;;;;;1795035;77;20198;-94
2021/09/03 13:58:28;;;;;;;;;;;25.00;99.90;;;;;;1800642;78;20181;-94
2021/09/03 14:01:15;;;;;;;;;;;25.00;99.90;;;;;;1771447;78;20167;-94
2021/09/03 14:04:06;;;;;;;;;;;25.00;99.90;;;;;;1799139;79;20506;-94
2021/09/03 14:10:02;;;;;;;;;;;25.00;99.90;;;;;;1794075;78;20177;-94
2021/09/03 14:12:47;;;;;;;;;;;25.00;99.90;;;;;;1779371;80;20149;-92
2021/09/03 14:15:08;;;;;;;;;;;25.00;99.90;;;;;;1782407;78;20201;-91
2021/09/03 14:17:43;;;;;;;;;;;25.00;99.90;;;;;;1797503;80;20255;-94
2021/09/03 14:20:21;;;;;;;;;;;25.00;99.90;;;;;;1789042;78;20184;-92
2021/09/03 14:22:48;;;;;;;;;;;25.00;99.90;;;;;;1786654;78;20275;-93
2021/09/03 14:25:19;;;;;;;;;;;25.00;99.90;;;;;;1795209;78;20228;-94
2021/09/03 14:27:54;;;;;;;;;;;25.00;99.90;;;;;;1798235;79;20291;-92
2021/09/03 14:30:25;;;;;;;;;;;25.10;99.90;;;;;;1791561;77;20224;-95
2021/09/03 14:33:07;;;;;;;;;;;25.00;99.90;;;;;;1790049;79;20263;-92
2021/09/03 14:35:38;;;;;;;;;;;25.00;99.90;;;;;;1786345;79;20173;-94
2021/09/03 14:38:02;;;;;;;;;;;25.00;99.90;;;;;;1789995;79;20223;-94
2021/09/03 14:40:37;;;;;;;;;;;25.00;99.90;;;;;;1805919;78;20168;-94
2021/09/03 14:43:23;;;;;;;;;;;25.00;99.90;;;;;;1803404;78;20539;-94
2021/09/03 14:45:59;;;;;;;;;;;25.10;99.90;;;;;;1786250;77;20154;-95
2021/09/03 14:48:42;;;;;;;;;;;25.10;99.90;;;;;;1801467;78;20170;-94
2021/09/03 14:51:18;;;;;;;;;;;25.20;99.90;;;;;;1789301;79;20213;-94
2021/09/03 14:53:42;;;;;;;;;;;25.10;99.90;;;;;;1782363;79;20397;-93
2021/09/03 14:56:10;;;;;;;;;;;25.20;99.90;;;;;;1789757;79;20253;-94
2021/09/03 14:58:45;;;;;;;;;;;25.20;99.90;;;;;;1795851;78;20169;-94
2021/09/03 15:01:17;;;;;;;;;;;25.20;99.90;;;;;;1798518;79;20179;-95
2021/09/03 15:03:49;;;;;;;;;;;25.20;99.90;;;;;;1793562;80;20531;-94